createdAt,value
2019-05-10T00:01:52.277Z,13.40
2019-05-10T00:04:39.237Z,13.30
2019-05-10T00:07:25.582Z,13.30
2019-05-10T00:09:53.471Z,13.30
2019-05-10T00:12:29.562Z,13.30
2019-05-10T00:14:58.169Z,13.30
2019-05-10T00:17:26.674Z,13.30
2019-05-10T00:19:55.303Z,13.20
2019-05-10T00:22:23.998Z,13.30
2019-05-10T00:25:03.138Z,13.20
2019-05-10T00:27:22.861Z,13.20
2019-05-10T00:29:51.367Z,13.20
2019-05-10T00:32:19.849Z,13.20
2019-05-10T00:34:48.386Z,13.20
2019-05-10T00:37:16.889Z,13.20
2019-05-10T00:39:45.405Z,13.10
2019-05-10T00:42:14.049Z,13.10
2019-05-10T00:44:42.714Z,13.10
2019-05-10T00:47:11.296Z,13.10
2019-05-10T00:49:39.910Z,13.10
2019-05-10T00:52:08.460Z,13.10
2019-05-10T00:54:37.033Z,13.10
2019-05-10T00:57:05.667Z,13.10
2019-05-10T00:59:34.277Z,13.10
2019-05-10T01:02:04.567Z,13.00
2019-05-10T01:04:33.162Z,13.00
2019-05-10T01:07:03.354Z,13.00
2019-05-10T01:09:31.960Z,13.00
2019-05-10T01:12:00.434Z,13.00
2019-05-10T01:14:29.035Z,13.00
2019-05-10T01:16:57.503Z,13.00
2019-05-10T01:19:25.959Z,13.00
2019-05-10T01:21:54.454Z,13.00
2019-05-10T01:24:23.139Z,13.00
2019-05-10T01:26:51.775Z,12.90
2019-05-10T01:29:20.323Z,12.90
2019-05-10T01:31:50.369Z,12.90
2019-05-10T01:34:18.865Z,12.80
2019-05-10T01:36:47.347Z,12.80
2019-05-10T01:39:15.812Z,12.90
2019-05-10T01:41:44.269Z,12.90
2019-05-10T01:44:14.356Z,12.90
2019-05-10T01:46:42.843Z,12.90
2019-05-10T01:49:11.440Z,12.90
2019-05-10T01:51:40.063Z,12.80
2019-05-10T01:54:08.569Z,12.80
2019-05-10T01:56:37.148Z,12.80
2019-05-10T01:59:05.723Z,12.80
2019-05-10T02:01:34.217Z,12.80
2019-05-10T02:04:02.733Z,12.80
2019-05-10T02:06:31.265Z,12.80
2019-05-10T02:09:00.423Z,12.80
2019-05-10T02:11:29.081Z,12.80
2019-05-10T02:13:59.210Z,12.70
2019-05-10T02:16:27.774Z,12.70
2019-05-10T02:18:56.270Z,12.70
2019-05-10T02:21:24.771Z,12.70
2019-05-10T02:23:53.221Z,12.60
2019-05-10T02:26:21.725Z,12.60
2019-05-10T02:28:50.206Z,12.60
2019-05-10T02:31:21.680Z,12.60
2019-05-10T02:33:49.123Z,12.60
2019-05-10T02:36:17.757Z,12.60
2019-05-10T02:38:46.341Z,12.60
2019-05-10T02:41:15.005Z,12.60
2019-05-10T02:43:43.666Z,12.50
2019-05-10T02:46:12.282Z,12.50
2019-05-10T02:48:40.777Z,12.50
2019-05-10T02:51:09.383Z,12.50
2019-05-10T02:53:38.188Z,12.50
2019-05-10T02:56:06.773Z,12.50
2019-05-10T02:58:35.504Z,12.50
2019-05-10T03:01:08.996Z,12.50
2019-05-10T03:03:40.274Z,12.40
2019-05-10T03:06:09.019Z,12.40
2019-05-10T03:08:49.152Z,12.40
2019-05-10T03:11:17.929Z,12.30
2019-05-10T03:13:49.223Z,12.30
2019-05-10T03:16:20.249Z,12.30
2019-05-10T03:18:50.783Z,12.30
2019-05-10T03:21:22.652Z,12.30
2019-05-10T03:23:51.332Z,12.30
2019-05-10T03:26:19.984Z,12.30
2019-05-10T03:28:48.627Z,12.30
2019-05-10T03:31:17.294Z,12.30
2019-05-10T03:33:54.280Z,12.30
2019-05-10T03:36:16.250Z,12.20
2019-05-10T03:38:44.917Z,12.20
2019-05-10T03:41:13.536Z,12.20
2019-05-10T03:43:44.098Z,12.20
2019-05-10T03:46:12.641Z,12.20
2019-05-10T03:48:41.146Z,12.20
2019-05-10T03:51:12.573Z,12.20
2019-05-10T03:53:41.096Z,12.20
2019-05-10T03:56:11.215Z,12.20
2019-05-10T03:58:39.792Z,12.20
2019-05-10T04:01:08.300Z,12.10
2019-05-10T04:03:36.800Z,12.10
2019-05-10T04:06:05.332Z,12.10
2019-05-10T04:08:35.561Z,12.10
2019-05-10T04:11:04.134Z,12.10
2019-05-10T04:13:32.748Z,12.10
2019-05-10T04:16:01.313Z,12.10
2019-05-10T04:18:29.894Z,12.10
2019-05-10T04:20:58.479Z,12.10
2019-05-10T04:23:27.059Z,12.10
2019-05-10T04:25:57.098Z,12.00
2019-05-10T04:28:25.670Z,12.00
2019-05-10T04:30:54.128Z,12.00
2019-05-10T04:33:22.712Z,12.00
2019-05-10T04:35:51.206Z,12.00
2019-05-10T04:38:19.688Z,12.00
2019-05-10T04:40:51.369Z,12.00
2019-05-10T04:43:19.925Z,12.00
2019-05-10T04:45:48.516Z,12.00
2019-05-10T04:48:17.000Z,12.00
2019-05-10T04:50:49.278Z,12.00
2019-05-10T04:53:17.255Z,12.00
2019-05-10T04:55:57.771Z,11.90
2019-05-10T04:58:26.300Z,11.90
2019-05-10T05:00:54.922Z,11.90
2019-05-10T05:03:25.611Z,11.90
2019-05-10T05:05:54.181Z,11.90
2019-05-10T05:08:22.768Z,12.00
2019-05-10T05:10:51.370Z,12.00
2019-05-10T05:13:19.982Z,12.00
2019-05-10T05:15:48.536Z,12.00
2019-05-10T05:18:17.205Z,12.00
2019-05-10T05:20:45.786Z,12.00
2019-05-10T05:23:14.385Z,12.00
2019-05-10T05:25:45.534Z,12.10
2019-05-10T05:28:18.331Z,12.00
2019-05-10T05:30:46.243Z,12.00
2019-05-10T05:33:20.075Z,12.00
2019-05-10T05:35:48.700Z,12.10
2019-05-10T05:38:17.355Z,12.00
2019-05-10T05:40:47.222Z,12.00
2019-05-10T05:43:15.807Z,12.00
2019-05-10T05:45:44.711Z,12.00
2019-05-10T05:48:21.409Z,12.10
2019-05-10T05:50:49.344Z,12.10
2019-05-10T05:53:22.084Z,12.00
2019-05-10T05:55:48.549Z,12.10
2019-05-10T05:58:26.634Z,12.10
2019-05-10T06:00:49.085Z,12.10
2019-05-10T06:03:27.457Z,12.10
2019-05-10T06:05:49.579Z,12.10
2019-05-10T06:08:24.694Z,12.10
2019-05-10T06:10:57.393Z,12.10
2019-05-10T06:13:23.593Z,12.10
2019-05-10T06:15:53.084Z,12.10
2019-05-10T06:18:24.045Z,12.10
2019-05-10T06:20:53.766Z,12.10
2019-05-10T06:23:22.518Z,12.10
2019-05-10T06:25:52.330Z,12.10
2019-05-10T06:28:26.833Z,12.20
2019-05-10T06:30:58.798Z,12.20
2019-05-10T06:33:29.262Z,12.20
2019-05-10T06:35:58.946Z,12.20
2019-05-10T06:38:30.481Z,12.20
2019-05-10T06:40:59.151Z,12.20
2019-05-10T06:43:51.519Z,12.20
2019-05-10T06:46:17.026Z,12.20
2019-05-10T06:48:47.178Z,12.20
2019-05-10T06:51:17.357Z,12.20
2019-05-10T06:53:51.960Z,12.20
2019-05-10T06:56:17.851Z,12.20
2019-05-10T06:58:46.389Z,12.20
2019-05-10T07:01:15.070Z,12.20
2019-05-10T07:03:43.647Z,12.20
2019-05-10T07:06:12.249Z,12.20
2019-05-10T07:08:51.949Z,12.20
2019-05-10T07:11:18.835Z,12.20
2019-05-10T07:13:53.074Z,12.20
2019-05-10T07:16:24.428Z,12.20
2019-05-10T07:18:59.872Z,12.30
2019-05-10T07:21:24.839Z,12.30
2019-05-10T07:23:53.419Z,12.30
2019-05-10T07:26:24.221Z,12.30
2019-05-10T07:28:57.455Z,12.30
2019-05-10T07:31:23.841Z,12.30
2019-05-10T07:33:58.692Z,12.30
2019-05-10T07:36:30.682Z,12.30
2019-05-10T07:38:57.690Z,12.30
2019-05-10T07:41:32.140Z,12.40
2019-05-10T07:44:15.719Z,12.30
2019-05-10T07:46:53.856Z,12.40
2019-05-10T07:49:38.914Z,12.40
2019-05-10T07:52:07.452Z,12.40
2019-05-10T07:54:37.555Z,12.40
2019-05-10T07:57:06.534Z,12.40
2019-05-10T07:59:49.520Z,12.40
2019-05-10T08:02:12.242Z,12.40
2019-05-10T08:04:35.836Z,12.40
2019-05-10T08:07:07.456Z,12.60
2019-05-10T08:09:37.060Z,12.50
2019-05-10T08:12:05.604Z,12.50
2019-05-10T08:14:34.195Z,12.60
2019-05-10T08:17:06.235Z,12.60
2019-05-10T08:19:37.637Z,12.60
2019-05-10T08:22:09.226Z,12.60
2019-05-10T08:24:37.188Z,12.60
2019-05-10T08:27:11.465Z,12.70
2019-05-10T08:29:44.105Z,12.70
2019-05-10T08:32:08.599Z,12.70
2019-05-10T08:34:39.339Z,12.80
2019-05-10T08:37:09.153Z,12.80
2019-05-10T08:39:45.325Z,12.90
2019-05-10T08:42:29.327Z,12.90
2019-05-10T08:44:39.781Z,12.90
2019-05-10T08:47:16.181Z,12.90
2019-05-10T08:49:46.560Z,13.00
2019-05-10T08:52:08.823Z,13.00
2019-05-10T08:54:37.388Z,13.00
2019-05-10T08:57:08.806Z,13.10
2019-05-10T08:59:37.389Z,13.10
2019-05-10T09:02:07.595Z,13.10
2019-05-10T09:04:42.821Z,13.20
2019-05-10T09:07:06.522Z,13.20
2019-05-10T09:09:45.722Z,13.30
2019-05-10T09:12:13.194Z,13.30
2019-05-10T09:14:43.113Z,13.30
2019-05-10T09:17:14.755Z,13.40
2019-05-10T09:19:45.885Z,13.40
2019-05-10T09:22:14.526Z,13.50
2019-05-10T09:24:48.688Z,13.50
2019-05-10T09:27:13.488Z,13.50
2019-05-10T09:29:43.055Z,13.50
2019-05-10T09:32:12.511Z,13.60
2019-05-10T09:34:42.649Z,13.60
2019-05-10T09:37:17.578Z,13.60
2019-05-10T09:39:43.999Z,13.60
2019-05-10T09:42:25.124Z,13.70
2019-05-10T09:44:45.819Z,13.70
2019-05-10T09:47:13.291Z,13.70
2019-05-10T09:49:45.174Z,13.80
2019-05-10T09:52:13.419Z,13.80
2019-05-10T09:54:42.516Z,13.80
2019-05-10T09:57:11.185Z,13.80
2019-05-10T09:59:39.776Z,13.80
2019-05-10T10:02:14.322Z,13.90
2019-05-10T10:04:43.212Z,13.90
2019-05-10T10:07:13.367Z,13.90
2019-05-10T10:09:44.606Z,13.90
2019-05-10T10:12:12.489Z,13.90
2019-05-10T10:14:43.218Z,14.00
2019-05-10T10:17:17.367Z,14.00
2019-05-10T10:19:44.808Z,14.00
2019-05-10T10:22:13.441Z,14.00
2019-05-10T10:24:43.822Z,14.00
2019-05-10T10:27:13.890Z,14.10
2019-05-10T10:29:48.773Z,14.10
2019-05-10T10:32:24.600Z,14.20
2019-05-10T10:34:54.764Z,14.20
2019-05-10T10:37:31.344Z,14.30
2019-05-10T10:40:05.361Z,14.30
2019-05-10T10:42:37.788Z,14.30
2019-05-10T10:45:12.440Z,14.30
2019-05-10T10:47:40.482Z,14.30
2019-05-10T10:50:13.346Z,14.40
2019-05-10T10:52:40.180Z,14.40
2019-05-10T10:55:15.715Z,14.50
2019-05-10T10:57:44.875Z,14.50
2019-05-10T11:00:23.660Z,14.50
2019-05-10T11:02:53.675Z,14.50
2019-05-10T11:05:23.827Z,14.50
2019-05-10T11:08:00.901Z,14.60
2019-05-10T11:10:36.275Z,14.60
2019-05-10T11:13:14.022Z,14.50
2019-05-10T11:15:38.657Z,14.50
2019-05-10T11:18:07.325Z,14.60
2019-05-10T11:20:41.899Z,14.60
2019-05-10T11:23:24.516Z,14.60
2019-05-10T11:25:56.528Z,14.70
2019-05-10T11:28:29.473Z,14.70
2019-05-10T11:30:57.864Z,14.80
2019-05-10T11:33:32.872Z,14.80
2019-05-10T11:36:06.447Z,14.90
2019-05-10T11:38:28.405Z,14.90
2019-05-10T11:40:57.260Z,14.90
2019-05-10T11:43:27.151Z,14.90
2019-05-10T11:46:01.475Z,15.00
2019-05-10T11:48:37.141Z,14.90
2019-05-10T11:51:05.583Z,15.00
2019-05-10T11:53:33.263Z,15.00
2019-05-10T11:56:17.097Z,14.90
2019-05-10T12:01:19.249Z,14.80
2019-05-10T12:03:46.554Z,14.70
2019-05-10T12:06:18.039Z,14.60
2019-05-10T12:08:46.631Z,14.50
2019-05-10T12:11:28.265Z,15.00
2019-05-10T12:13:46.719Z,15.30
2019-05-10T12:16:16.838Z,15.60
2019-05-10T12:19:02.458Z,16.00
2019-05-10T12:21:21.795Z,16.20
2019-05-10T12:23:51.868Z,16.40
2019-05-10T12:26:20.602Z,14.90
2019-05-10T12:28:51.170Z,16.70
2019-05-10T12:31:21.101Z,17.00
2019-05-10T12:33:50.577Z,17.00
2019-05-10T12:36:26.063Z,17.10
2019-05-10T12:38:49.533Z,17.20
2019-05-10T12:41:18.212Z,17.30
2019-05-10T12:43:49.437Z,17.30
2019-05-10T12:46:20.609Z,17.20
2019-05-10T12:48:48.762Z,17.30
2019-05-10T12:51:20.997Z,17.40
2019-05-10T12:53:49.833Z,17.40
2019-05-10T12:56:18.640Z,17.40
2019-05-10T13:02:25.168Z,17.50
2019-05-10T13:05:01.342Z,17.50
2019-05-10T13:08:23.414Z,17.50
2019-05-10T13:10:51.690Z,17.50
2019-05-10T13:13:41.579Z,17.50
2019-05-10T13:19:19.884Z,17.40
2019-05-10T13:25:20.896Z,17.60
2019-05-10T13:27:49.611Z,17.60
2019-05-10T13:30:28.073Z,17.60
2019-05-10T13:32:58.837Z,17.60
2019-05-10T13:35:29.181Z,17.60
2019-05-10T13:38:04.130Z,17.70
2019-05-10T13:41:04.733Z,17.70
2019-05-10T13:43:49.932Z,17.70
2019-05-10T13:46:22.719Z,17.70
2019-05-10T13:48:51.557Z,17.70
2019-05-10T13:51:20.323Z,17.60
2019-05-10T13:53:48.841Z,17.60
2019-05-10T13:56:17.511Z,17.60
2019-05-10T13:59:15.094Z,17.60
2019-05-10T14:01:49.758Z,17.60
2019-05-10T14:04:17.949Z,17.60
2019-05-10T14:06:47.455Z,17.60
2019-05-10T14:09:28.879Z,17.60
2019-05-10T14:11:57.753Z,17.60
2019-05-10T14:14:26.892Z,17.60
2019-05-10T14:16:55.797Z,17.60
2019-05-10T14:19:49.270Z,17.70
2019-05-10T14:21:56.545Z,17.70
2019-05-10T14:24:25.250Z,17.60
2019-05-10T14:26:57.113Z,17.50
2019-05-10T14:29:34.354Z,17.60
2019-05-10T14:31:56.685Z,17.60
2019-05-10T14:34:25.194Z,17.60
2019-05-10T14:36:53.760Z,17.60
2019-05-10T14:39:25.614Z,17.70
2019-05-10T14:41:54.283Z,17.70
2019-05-10T14:44:27.967Z,17.80
2019-05-10T14:46:56.838Z,17.80
2019-05-10T14:49:25.505Z,17.60
2019-05-10T14:51:58.838Z,17.70
2019-05-10T14:54:24.301Z,17.70
2019-05-10T14:56:54.105Z,17.70
2019-05-10T14:59:24.438Z,17.70
2019-05-10T15:01:54.538Z,17.80
2019-05-10T15:06:54.921Z,17.80
2019-05-10T15:09:24.184Z,17.80
2019-05-10T15:11:52.827Z,17.80
2019-05-10T15:14:21.401Z,17.90
2019-05-10T15:16:49.990Z,17.80
2019-05-10T15:19:18.580Z,17.80
2019-05-10T15:21:47.237Z,17.70
2019-05-10T15:24:15.859Z,17.80
2019-05-10T15:26:46.086Z,17.80
2019-05-10T15:29:21.450Z,17.80
2019-05-10T15:31:44.909Z,17.70
2019-05-10T15:34:13.464Z,17.80
2019-05-10T15:36:44.913Z,17.80
2019-05-10T15:39:23.075Z,17.70
2019-05-10T15:41:53.689Z,17.60
2019-05-10T15:44:30.220Z,17.70
2019-05-10T15:46:51.518Z,17.70
2019-05-10T15:51:56.828Z,17.70
2019-05-10T15:54:21.727Z,17.70
2019-05-10T15:56:50.283Z,17.70
2019-05-10T15:59:21.257Z,17.70
2019-05-10T15:59:23.954Z,17.70
2019-05-10T16:01:50.053Z,17.60
2019-05-10T16:04:18.596Z,17.60
2019-05-10T16:06:47.313Z,17.60
2019-05-10T16:09:17.811Z,17.60
2019-05-10T16:11:55.800Z,17.70
2019-05-10T16:14:24.990Z,17.70
2019-05-10T16:16:56.139Z,17.70
2019-05-10T16:19:24.713Z,17.70
2019-05-10T16:21:58.096Z,17.60
2019-05-10T16:24:27.926Z,17.60
2019-05-10T16:27:00.183Z,17.60
2019-05-10T16:29:33.639Z,17.60
2019-05-10T16:32:02.208Z,17.50
2019-05-10T16:34:37.587Z,17.60
2019-05-10T16:37:06.413Z,17.60
2019-05-10T16:39:35.037Z,17.60
2019-05-10T16:42:05.465Z,17.70
2019-05-10T16:44:45.608Z,17.70
2019-05-10T16:47:14.250Z,17.70
2019-05-10T16:49:53.181Z,17.70
2019-05-10T16:52:29.706Z,17.70
2019-05-10T16:55:03.507Z,17.70
2019-05-10T16:57:32.128Z,17.70
2019-05-10T17:00:01.975Z,17.70
2019-05-10T17:02:29.601Z,17.70
2019-05-10T17:04:58.169Z,17.70
2019-05-10T17:07:26.868Z,17.70
2019-05-10T17:09:57.925Z,17.70
2019-05-10T17:12:27.629Z,17.60
2019-05-10T17:15:02.805Z,17.60
2019-05-10T17:17:31.354Z,17.60
2019-05-10T17:20:00.023Z,17.60
2019-05-10T17:22:28.621Z,17.60
2019-05-10T17:25:03.181Z,17.60
2019-05-10T17:27:29.524Z,17.60
2019-05-10T17:29:58.057Z,17.60
2019-05-10T17:32:26.730Z,17.60
2019-05-10T17:34:59.327Z,17.60
2019-05-10T17:37:29.829Z,17.60
2019-05-10T17:39:58.944Z,17.50
2019-05-10T17:42:35.546Z,17.50
2019-05-10T17:45:07.010Z,17.50
2019-05-10T17:47:40.332Z,17.50
2019-05-10T17:59:59.795Z,17.40
2019-05-10T18:24:59.742Z,17.30
2019-05-10T20:19:19.712Z,16.30
2019-05-10T20:21:48.353Z,16.30
2019-05-10T20:24:18.299Z,16.30
2019-05-10T20:26:46.722Z,16.30
2019-05-10T20:29:15.269Z,16.30
2019-05-10T20:31:45.043Z,16.30
2019-05-10T20:34:13.818Z,16.30
2019-05-10T20:36:44.021Z,16.30
2019-05-10T20:39:12.561Z,16.20
2019-05-10T20:41:41.169Z,16.30
2019-05-10T20:44:10.771Z,16.20
2019-05-10T20:46:39.285Z,16.20
2019-05-10T20:49:07.879Z,16.20
2019-05-10T20:51:36.444Z,16.20
2019-05-10T20:54:08.220Z,16.10
2019-05-10T20:56:36.756Z,16.20
2019-05-10T20:59:05.230Z,16.10
2019-05-10T21:01:36.760Z,16.10
2019-05-10T21:04:05.235Z,16.10
2019-05-10T21:06:37.525Z,16.10
2019-05-10T21:09:06.716Z,16.10
2019-05-10T21:11:35.625Z,16.10
2019-05-10T21:14:04.197Z,16.00
2019-05-10T21:16:32.747Z,16.00
2019-05-10T21:19:01.439Z,16.00
2019-05-10T21:21:30.744Z,16.00
2019-05-10T21:23:59.243Z,16.00
2019-05-10T21:26:27.679Z,16.00
2019-05-10T21:28:56.148Z,16.00
2019-05-10T21:31:26.314Z,15.90
2019-05-10T21:34:08.521Z,15.90
2019-05-10T21:36:25.046Z,15.90
2019-05-10T21:38:55.115Z,15.90
2019-05-10T21:41:27.596Z,15.90
2019-05-10T21:43:57.562Z,15.90
2019-05-10T21:46:26.977Z,15.80
2019-05-10T21:48:55.494Z,15.90
2019-05-10T21:51:24.101Z,15.90
2019-05-10T21:53:52.677Z,15.80
2019-05-10T21:56:21.255Z,15.80
2019-05-10T21:58:49.815Z,15.80
2019-05-10T22:01:18.741Z,15.80
2019-05-10T22:03:47.490Z,15.80
2019-05-10T22:06:16.199Z,15.70
2019-05-10T22:08:49.322Z,15.70
2019-05-10T22:11:21.325Z,15.70
2019-05-10T22:13:48.766Z,15.70
2019-05-10T22:16:17.429Z,15.70
2019-05-10T22:18:47.971Z,15.70
2019-05-10T22:21:16.674Z,15.70
2019-05-10T22:23:46.874Z,15.70
2019-05-10T22:26:15.570Z,15.70
2019-05-10T22:28:44.174Z,15.70
2019-05-10T22:31:12.772Z,15.60
2019-05-10T22:33:41.245Z,15.60
2019-05-10T22:36:10.860Z,15.60
2019-05-10T22:38:39.366Z,15.60
2019-05-10T22:41:10.535Z,15.60
2019-05-10T22:43:39.065Z,15.60
2019-05-10T22:46:09.270Z,15.50
2019-05-10T22:48:39.501Z,15.50
2019-05-10T22:51:09.300Z,15.50
2019-05-10T22:53:38.021Z,15.50
2019-05-10T22:56:06.743Z,15.40
2019-05-10T22:58:35.293Z,15.40
2019-05-10T23:01:05.360Z,15.40
2019-05-10T23:03:34.002Z,15.40
2019-05-10T23:06:04.066Z,15.40
2019-05-10T23:08:32.700Z,15.40
2019-05-10T23:11:01.505Z,15.40
2019-05-10T23:13:32.520Z,15.30
2019-05-10T23:16:09.933Z,15.40
2019-05-10T23:18:38.441Z,15.40
2019-05-10T23:21:06.974Z,15.40
2019-05-10T23:23:36.776Z,15.30
2019-05-10T23:26:05.328Z,15.30
2019-05-10T23:28:33.823Z,15.30
2019-05-10T23:31:02.385Z,15.30
2019-05-10T23:33:30.999Z,15.20
2019-05-10T23:36:01.246Z,15.20
2019-05-10T23:38:29.951Z,15.20
2019-05-10T23:40:58.780Z,15.20
2019-05-10T23:43:28.669Z,15.20
2019-05-10T23:45:58.310Z,15.20
2019-05-10T23:48:28.550Z,15.10
2019-05-10T23:50:58.691Z,15.10
2019-05-10T23:53:27.225Z,15.10
2019-05-10T23:55:55.766Z,15.10
2019-05-10T23:58:27.399Z,15.10
